sensor_id;sensor_type;location;lat;lon;timestamp;P1;durP1;ratioP1;P2;durP2;ratioP2
62848;SDS011;48941;49.516;8.286;2024-01-06T00:02:25;4.35;;;2.55;;
62848;SDS011;48941;49.516;8.286;2024-01-06T00:04:55;6.78;;;2.70;;
62848;SDS011;48941;49.516;8.286;2024-01-06T00:07:23;7.07;;;2.50;;
62848;SDS011;48941;49.516;8.286;2024-01-06T00:09:51;6.78;;;2.70;;
62848;SDS011;48941;49.516;8.286;2024-01-06T00:12:19;6.53;;;2.60;;
62848;SDS011;48941;49.516;8.286;2024-01-06T00:14:47;5.90;;;2.75;;
62848;SDS011;48941;49.516;8.286;2024-01-06T00:17:15;8.32;;;2.90;;
62848;SDS011;48941;49.516;8.286;2024-01-06T00:19:46;5.25;;;2.75;;
62848;SDS011;48941;49.516;8.286;2024-01-06T00:22:18;4.30;;;2.42;;
62848;SDS011;48941;49.516;8.286;2024-01-06T00:24:46;6.93;;;3.10;;
62848;SDS011;48941;49.516;8.286;2024-01-06T00:27:14;6.55;;;2.55;;
62848;SDS011;48941;49.516;8.286;2024-01-06T00:29:42;7.28;;;4.00;;
62848;SDS011;48941;49.516;8.286;2024-01-06T00:32:10;9.27;;;3.97;;
62848;SDS011;48941;49.516;8.286;2024-01-06T00:34:38;11.85;;;6.00;;
62848;SDS011;48941;49.516;8.286;2024-01-06T00:37:08;9.75;;;4.32;;
62848;SDS011;48941;49.516;8.286;2024-01-06T00:39:37;10.75;;;4.90;;
62848;SDS011;48941;49.516;8.286;2024-01-06T00:42:05;14.77;;;5.80;;
62848;SDS011;48941;49.516;8.286;2024-01-06T00:44:36;10.43;;;5.03;;
62848;SDS011;48941;49.516;8.286;2024-01-06T00:47:04;11.38;;;4.50;;
62848;SDS011;48941;49.516;8.286;2024-01-06T00:49:32;11.48;;;4.53;;
62848;SDS011;48941;49.516;8.286;2024-01-06T00:52:00;10.43;;;4.85;;
62848;SDS011;48941;49.516;8.286;2024-01-06T00:54:27;8.73;;;4.70;;
62848;SDS011;48941;49.516;8.286;2024-01-06T00:56:57;9.77;;;4.63;;
62848;SDS011;48941;49.516;8.286;2024-01-06T00:59:24;10.07;;;4.93;;
62848;SDS011;48941;49.516;8.286;2024-01-06T01:01:53;10.82;;;3.90;;
62848;SDS011;48941;49.516;8.286;2024-01-06T01:04:21;7.00;;;3.42;;
62848;SDS011;48941;49.516;8.286;2024-01-06T01:06:49;6.95;;;2.95;;
62848;SDS011;48941;49.516;8.286;2024-01-06T01:09:17;8.18;;;3.22;;
62848;SDS011;48941;49.516;8.286;2024-01-06T01:11:45;5.78;;;2.70;;
62848;SDS011;48941;49.516;8.286;2024-01-06T01:14:14;7.82;;;3.00;;
62848;SDS011;48941;49.516;8.286;2024-01-06T01:16:44;9.75;;;3.72;;
62848;SDS011;48941;49.516;8.286;2024-01-06T01:19:12;8.05;;;2.63;;
62848;SDS011;48941;49.516;8.286;2024-01-06T01:21:41;5.53;;;2.58;;
62848;SDS011;48941;49.516;8.286;2024-01-06T01:24:10;6.65;;;2.50;;
62848;SDS011;48941;49.516;8.286;2024-01-06T01:26:38;6.40;;;2.30;;
62848;SDS011;48941;49.516;8.286;2024-01-06T01:29:06;6.10;;;2.70;;
62848;SDS011;48941;49.516;8.286;2024-01-06T01:31:35;6.80;;;2.42;;
62848;SDS011;48941;49.516;8.286;2024-01-06T01:34:03;6.13;;;2.60;;
62848;SDS011;48941;49.516;8.286;2024-01-06T01:36:31;6.53;;;2.60;;
62848;SDS011;48941;49.516;8.286;2024-01-06T01:39:00;8.15;;;2.63;;
62848;SDS011;48941;49.516;8.286;2024-01-06T01:41:28;5.30;;;2.35;;
62848;SDS011;48941;49.516;8.286;2024-01-06T01:43:55;8.38;;;2.55;;
62848;SDS011;48941;49.516;8.286;2024-01-06T01:46:28;5.75;;;2.55;;
62848;SDS011;48941;49.516;8.286;2024-01-06T01:48:59;5.05;;;2.47;;
62848;SDS011;48941;49.516;8.286;2024-01-06T01:51:28;9.05;;;2.90;;
62848;SDS011;48941;49.516;8.286;2024-01-06T01:53:57;9.00;;;2.42;;
62848;SDS011;48941;49.516;8.286;2024-01-06T01:56:25;9.15;;;2.88;;
62848;SDS011;48941;49.516;8.286;2024-01-06T01:58:54;11.07;;;2.85;;
62848;SDS011;48941;49.516;8.286;2024-01-06T02:01:22;5.65;;;2.20;;
62848;SDS011;48941;49.516;8.286;2024-01-06T02:03:50;4.82;;;2.90;;
62848;SDS011;48941;49.516;8.286;2024-01-06T02:06:19;7.05;;;2.78;;
62848;SDS011;48941;49.516;8.286;2024-01-06T02:08:49;5.18;;;2.20;;
62848;SDS011;48941;49.516;8.286;2024-01-06T02:11:18;6.20;;;2.28;;
62848;SDS011;48941;49.516;8.286;2024-01-06T02:13:46;5.88;;;2.40;;
62848;SDS011;48941;49.516;8.286;2024-01-06T02:16:13;7.25;;;2.30;;
62848;SDS011;48941;49.516;8.286;2024-01-06T02:18:41;5.97;;;2.90;;
62848;SDS011;48941;49.516;8.286;2024-01-06T02:21:09;8.00;;;2.85;;
62848;SDS011;48941;49.516;8.286;2024-01-06T02:23:39;9.98;;;2.90;;
62848;SDS011;48941;49.516;8.286;2024-01-06T02:26:06;8.65;;;2.55;;
62848;SDS011;48941;49.516;8.286;2024-01-06T02:28:34;6.35;;;2.47;;
62848;SDS011;48941;49.516;8.286;2024-01-06T02:31:02;6.97;;;2.25;;
62848;SDS011;48941;49.516;8.286;2024-01-06T02:33:30;4.30;;;2.50;;
62848;SDS011;48941;49.516;8.286;2024-01-06T02:35:58;4.65;;;2.38;;
62848;SDS011;48941;49.516;8.286;2024-01-06T02:38:26;6.32;;;2.70;;
62848;SDS011;48941;49.516;8.286;2024-01-06T02:40:55;7.53;;;3.00;;
62848;SDS011;48941;49.516;8.286;2024-01-06T02:43:23;8.38;;;2.55;;
62848;SDS011;48941;49.516;8.286;2024-01-06T02:45:52;6.90;;;2.78;;
62848;SDS011;48941;49.516;8.286;2024-01-06T02:48:20;3.05;;;1.88;;
62848;SDS011;48941;49.516;8.286;2024-01-06T02:50:48;6.55;;;2.50;;
62848;SDS011;48941;49.516;8.286;2024-01-06T02:53:16;6.35;;;2.22;;
62848;SDS011;48941;49.516;8.286;2024-01-06T02:55:43;4.30;;;2.30;;
62848;SDS011;48941;49.516;8.286;2024-01-06T02:58:13;7.15;;;2.30;;
62848;SDS011;48941;49.516;8.286;2024-01-06T03:00:40;4.55;;;2.40;;
62848;SDS011;48941;49.516;8.286;2024-01-06T03:03:08;6.55;;;2.28;;
62848;SDS011;48941;49.516;8.286;2024-01-06T03:05:36;3.65;;;2.30;;
62848;SDS011;48941;49.516;8.286;2024-01-06T03:08:04;7.03;;;2.30;;
62848;SDS011;48941;49.516;8.286;2024-01-06T03:10:32;7.47;;;2.42;;
62848;SDS011;48941;49.516;8.286;2024-01-06T03:13:02;7.38;;;2.20;;
62848;SDS011;48941;49.516;8.286;2024-01-06T03:15:32;12.35;;;2.60;;
62848;SDS011;48941;49.516;8.286;2024-01-06T03:17:59;4.80;;;2.22;;
62848;SDS011;48941;49.516;8.286;2024-01-06T03:20:27;5.35;;;1.90;;
62848;SDS011;48941;49.516;8.286;2024-01-06T03:22:55;3.17;;;2.00;;
62848;SDS011;48941;49.516;8.286;2024-01-06T03:25:23;6.50;;;1.90;;
62848;SDS011;48941;49.516;8.286;2024-01-06T03:27:51;6.80;;;2.13;;
62848;SDS011;48941;49.516;8.286;2024-01-06T03:30:19;4.30;;;2.30;;
62848;SDS011;48941;49.516;8.286;2024-01-06T03:32:48;10.30;;;2.45;;
62848;SDS011;48941;49.516;8.286;2024-01-06T03:35:19;5.18;;;2.25;;
62848;SDS011;48941;49.516;8.286;2024-01-06T03:37:47;3.72;;;2.10;;
62848;SDS011;48941;49.516;8.286;2024-01-06T03:40:15;3.50;;;2.13;;
62848;SDS011;48941;49.516;8.286;2024-01-06T03:42:42;6.05;;;2.00;;
62848;SDS011;48941;49.516;8.286;2024-01-06T03:45:10;4.15;;;2.10;;
62848;SDS011;48941;49.516;8.286;2024-01-06T03:47:38;5.07;;;1.85;;
62848;SDS011;48941;49.516;8.286;2024-01-06T03:50:08;3.25;;;2.10;;
62848;SDS011;48941;49.516;8.286;2024-01-06T03:52:36;5.57;;;2.08;;
62848;SDS011;48941;49.516;8.286;2024-01-06T03:55:05;4.78;;;1.90;;
62848;SDS011;48941;49.516;8.286;2024-01-06T03:57:33;1.88;;;1.58;;
62848;SDS011;48941;49.516;8.286;2024-01-06T04:00:01;5.40;;;1.98;;
62848;SDS011;48941;49.516;8.286;2024-01-06T04:02:29;3.55;;;2.05;;
62848;SDS011;48941;49.516;8.286;2024-01-06T04:04:57;4.47;;;2.10;;
62848;SDS011;48941;49.516;8.286;2024-01-06T04:07:26;3.55;;;1.90;;
62848;SDS011;48941;49.516;8.286;2024-01-06T04:09:54;4.93;;;1.95;;
62848;SDS011;48941;49.516;8.286;2024-01-06T04:12:22;4.47;;;2.38;;
62848;SDS011;48941;49.516;8.286;2024-01-06T04:14:49;5.45;;;2.35;;
62848;SDS011;48941;49.516;8.286;2024-01-06T04:17:17;2.80;;;2.00;;
62848;SDS011;48941;49.516;8.286;2024-01-06T04:19:45;4.20;;;2.28;;
62848;SDS011;48941;49.516;8.286;2024-01-06T04:22:13;4.88;;;2.03;;
62848;SDS011;48941;49.516;8.286;2024-01-06T04:24:42;4.30;;;2.45;;
62848;SDS011;48941;49.516;8.286;2024-01-06T04:27:10;3.83;;;2.40;;
62848;SDS011;48941;49.516;8.286;2024-01-06T04:29:38;4.30;;;2.45;;
62848;SDS011;48941;49.516;8.286;2024-01-06T04:32:05;4.85;;;2.40;;
62848;SDS011;48941;49.516;8.286;2024-01-06T04:34:33;3.95;;;2.05;;
62848;SDS011;48941;49.516;8.286;2024-01-06T04:37:01;8.88;;;2.22;;
62848;SDS011;48941;49.516;8.286;2024-01-06T04:39:29;5.22;;;2.50;;
62848;SDS011;48941;49.516;8.286;2024-01-06T04:42:01;6.15;;;2.28;;
62848;SDS011;48941;49.516;8.286;2024-01-06T04:44:29;5.38;;;2.00;;
62848;SDS011;48941;49.516;8.286;2024-01-06T04:46:57;4.35;;;1.90;;
62848;SDS011;48941;49.516;8.286;2024-01-06T04:49:25;6.50;;;2.05;;
62848;SDS011;48941;49.516;8.286;2024-01-06T04:51:53;3.47;;;2.40;;
62848;SDS011;48941;49.516;8.286;2024-01-06T04:54:22;3.28;;;2.10;;
62848;SDS011;48941;49.516;8.286;2024-01-06T04:56:50;5.78;;;2.30;;
62848;SDS011;48941;49.516;8.286;2024-01-06T04:59:19;6.95;;;2.22;;
62848;SDS011;48941;49.516;8.286;2024-01-06T05:01:47;3.53;;;2.13;;
62848;SDS011;48941;49.516;8.286;2024-01-06T05:04:15;5.70;;;2.58;;
62848;SDS011;48941;49.516;8.286;2024-01-06T05:06:43;3.72;;;2.30;;
62848;SDS011;48941;49.516;8.286;2024-01-06T05:09:11;4.82;;;2.10;;
62848;SDS011;48941;49.516;8.286;2024-01-06T05:11:38;5.28;;;1.98;;
62848;SDS011;48941;49.516;8.286;2024-01-06T05:14:06;4.60;;;2.25;;
62848;SDS011;48941;49.516;8.286;2024-01-06T05:16:36;2.85;;;2.03;;
62848;SDS011;48941;49.516;8.286;2024-01-06T05:19:06;3.53;;;2.00;;
62848;SDS011;48941;49.516;8.286;2024-01-06T05:21:34;9.30;;;2.40;;
62848;SDS011;48941;49.516;8.286;2024-01-06T05:24:03;4.47;;;2.28;;
62848;SDS011;48941;49.516;8.286;2024-01-06T05:26:34;5.30;;;2.33;;
62848;SDS011;48941;49.516;8.286;2024-01-06T05:29:02;7.68;;;2.88;;
62848;SDS011;48941;49.516;8.286;2024-01-06T05:31:30;11.02;;;2.60;;
62848;SDS011;48941;49.516;8.286;2024-01-06T05:34:01;5.38;;;2.20;;
62848;SDS011;48941;49.516;8.286;2024-01-06T05:36:30;7.95;;;2.53;;
62848;SDS011;48941;49.516;8.286;2024-01-06T05:38:58;5.32;;;2.30;;
62848;SDS011;48941;49.516;8.286;2024-01-06T05:41:27;5.15;;;2.65;;
62848;SDS011;48941;49.516;8.286;2024-01-06T05:43:55;6.10;;;2.97;;
62848;SDS011;48941;49.516;8.286;2024-01-06T05:46:23;4.85;;;2.63;;
62848;SDS011;48941;49.516;8.286;2024-01-06T05:48:51;4.93;;;2.88;;
62848;SDS011;48941;49.516;8.286;2024-01-06T05:51:21;6.85;;;3.40;;
62848;SDS011;48941;49.516;8.286;2024-01-06T05:53:49;9.02;;;3.70;;
62848;SDS011;48941;49.516;8.286;2024-01-06T05:56:23;5.88;;;3.42;;
62848;SDS011;48941;49.516;8.286;2024-01-06T05:58:52;5.53;;;2.88;;
62848;SDS011;48941;49.516;8.286;2024-01-06T06:01:20;6.82;;;3.50;;
62848;SDS011;48941;49.516;8.286;2024-01-06T06:03:50;8.50;;;3.40;;
62848;SDS011;48941;49.516;8.286;2024-01-06T06:06:18;7.57;;;3.55;;
62848;SDS011;48941;49.516;8.286;2024-01-06T06:08:47;6.40;;;3.60;;
62848;SDS011;48941;49.516;8.286;2024-01-06T06:11:15;7.53;;;3.92;;
62848;SDS011;48941;49.516;8.286;2024-01-06T06:13:43;7.75;;;3.53;;
62848;SDS011;48941;49.516;8.286;2024-01-06T06:16:11;6.03;;;3.35;;
62848;SDS011;48941;49.516;8.286;2024-01-06T06:18:39;11.02;;;3.47;;
62848;SDS011;48941;49.516;8.286;2024-01-06T06:21:07;5.35;;;3.47;;
62848;SDS011;48941;49.516;8.286;2024-01-06T06:23:35;6.88;;;3.75;;
62848;SDS011;48941;49.516;8.286;2024-01-06T06:26:06;4.70;;;3.10;;
62848;SDS011;48941;49.516;8.286;2024-01-06T06:28:34;6.60;;;3.20;;
62848;SDS011;48941;49.516;8.286;2024-01-06T06:31:02;7.18;;;3.83;;
62848;SDS011;48941;49.516;8.286;2024-01-06T06:33:31;6.13;;;3.15;;
62848;SDS011;48941;49.516;8.286;2024-01-06T06:36:00;9.65;;;4.00;;
62848;SDS011;48941;49.516;8.286;2024-01-06T06:38:28;6.57;;;3.35;;
62848;SDS011;48941;49.516;8.286;2024-01-06T06:40:56;5.60;;;3.65;;
62848;SDS011;48941;49.516;8.286;2024-01-06T06:43:25;5.63;;;3.33;;
62848;SDS011;48941;49.516;8.286;2024-01-06T06:45:53;5.63;;;3.88;;
62848;SDS011;48941;49.516;8.286;2024-01-06T06:48:21;7.50;;;4.20;;
62848;SDS011;48941;49.516;8.286;2024-01-06T06:50:49;8.07;;;4.05;;
62848;SDS011;48941;49.516;8.286;2024-01-06T06:53:17;5.22;;;3.33;;
62848;SDS011;48941;49.516;8.286;2024-01-06T06:55:45;6.13;;;3.92;;
62848;SDS011;48941;49.516;8.286;2024-01-06T06:58:13;7.75;;;3.78;;
62848;SDS011;48941;49.516;8.286;2024-01-06T07:00:42;8.68;;;4.10;;
62848;SDS011;48941;49.516;8.286;2024-01-06T07:03:10;6.90;;;4.55;;
62848;SDS011;48941;49.516;8.286;2024-01-06T07:05:40;9.05;;;4.25;;
62848;SDS011;48941;49.516;8.286;2024-01-06T07:08:10;7.93;;;4.80;;
62848;SDS011;48941;49.516;8.286;2024-01-06T07:10:39;7.30;;;4.90;;
62848;SDS011;48941;49.516;8.286;2024-01-06T07:13:07;8.27;;;5.00;;
62848;SDS011;48941;49.516;8.286;2024-01-06T07:15:35;7.80;;;4.65;;
62848;SDS011;48941;49.516;8.286;2024-01-06T07:18:04;10.30;;;4.68;;
62848;SDS011;48941;49.516;8.286;2024-01-06T07:20:32;9.90;;;4.93;;
62848;SDS011;48941;49.516;8.286;2024-01-06T07:23:00;8.07;;;4.28;;
62848;SDS011;48941;49.516;8.286;2024-01-06T07:25:29;8.30;;;4.25;;
62848;SDS011;48941;49.516;8.286;2024-01-06T07:27:57;7.97;;;4.32;;
62848;SDS011;48941;49.516;8.286;2024-01-06T07:30:25;7.80;;;4.40;;
62848;SDS011;48941;49.516;8.286;2024-01-06T07:32:55;8.95;;;4.65;;
62848;SDS011;48941;49.516;8.286;2024-01-06T07:35:24;10.13;;;4.57;;
62848;SDS011;48941;49.516;8.286;2024-01-06T07:37:52;8.98;;;5.00;;
62848;SDS011;48941;49.516;8.286;2024-01-06T07:40:20;9.75;;;5.45;;
62848;SDS011;48941;49.516;8.286;2024-01-06T07:42:49;13.65;;;5.68;;
62848;SDS011;48941;49.516;8.286;2024-01-06T07:45:18;12.65;;;5.60;;
62848;SDS011;48941;49.516;8.286;2024-01-06T07:47:48;9.48;;;5.40;;
62848;SDS011;48941;49.516;8.286;2024-01-06T07:50:16;6.85;;;4.05;;
62848;SDS011;48941;49.516;8.286;2024-01-06T07:52:47;7.22;;;4.22;;
62848;SDS011;48941;49.516;8.286;2024-01-06T07:55:16;8.85;;;4.82;;
62848;SDS011;48941;49.516;8.286;2024-01-06T07:57:45;8.95;;;5.03;;
62848;SDS011;48941;49.516;8.286;2024-01-06T08:00:13;7.97;;;5.03;;
62848;SDS011;48941;49.516;8.286;2024-01-06T08:02:41;7.88;;;5.25;;
62848;SDS011;48941;49.516;8.286;2024-01-06T08:05:10;9.00;;;5.15;;
62848;SDS011;48941;49.516;8.286;2024-01-06T08:07:38;9.55;;;4.25;;
62848;SDS011;48941;49.516;8.286;2024-01-06T08:10:08;8.23;;;4.53;;
62848;SDS011;48941;49.516;8.286;2024-01-06T08:12:36;7.70;;;4.40;;
62848;SDS011;48941;49.516;8.286;2024-01-06T08:15:05;8.20;;;5.25;;
62848;SDS011;48941;49.516;8.286;2024-01-06T08:17:34;6.93;;;4.85;;
62848;SDS011;48941;49.516;8.286;2024-01-06T08:20:03;8.02;;;4.97;;
62848;SDS011;48941;49.516;8.286;2024-01-06T08:22:32;7.70;;;5.00;;
62848;SDS011;48941;49.516;8.286;2024-01-06T08:25:00;6.90;;;4.53;;
62848;SDS011;48941;49.516;8.286;2024-01-06T08:27:30;10.07;;;4.68;;
62848;SDS011;48941;49.516;8.286;2024-01-06T08:29:58;6.57;;;4.25;;
62848;SDS011;48941;49.516;8.286;2024-01-06T08:32:26;6.43;;;4.07;;
62848;SDS011;48941;49.516;8.286;2024-01-06T08:34:54;10.88;;;4.88;;
62848;SDS011;48941;49.516;8.286;2024-01-06T08:37:22;6.68;;;4.53;;
62848;SDS011;48941;49.516;8.286;2024-01-06T08:39:49;5.63;;;4.25;;
62848;SDS011;48941;49.516;8.286;2024-01-06T08:42:17;7.28;;;4.63;;
62848;SDS011;48941;49.516;8.286;2024-01-06T08:44:47;8.82;;;4.88;;
62848;SDS011;48941;49.516;8.286;2024-01-06T08:47:14;10.35;;;5.82;;
62848;SDS011;48941;49.516;8.286;2024-01-06T08:49:42;8.43;;;4.80;;
62848;SDS011;48941;49.516;8.286;2024-01-06T08:52:10;12.85;;;6.82;;
62848;SDS011;48941;49.516;8.286;2024-01-06T08:54:38;15.15;;;7.75;;
62848;SDS011;48941;49.516;8.286;2024-01-06T08:57:06;15.30;;;8.57;;
62848;SDS011;48941;49.516;8.286;2024-01-06T08:59:34;12.00;;;6.13;;
62848;SDS011;48941;49.516;8.286;2024-01-06T09:02:03;11.85;;;6.65;;
62848;SDS011;48941;49.516;8.286;2024-01-06T09:04:31;12.25;;;6.10;;
62848;SDS011;48941;49.516;8.286;2024-01-06T09:06:59;10.18;;;5.07;;
62848;SDS011;48941;49.516;8.286;2024-01-06T09:09:27;10.80;;;5.82;;
62848;SDS011;48941;49.516;8.286;2024-01-06T09:11:56;9.27;;;5.82;;
62848;SDS011;48941;49.516;8.286;2024-01-06T09:14:25;12.70;;;6.13;;
62848;SDS011;48941;49.516;8.286;2024-01-06T09:16:53;9.60;;;5.95;;
62848;SDS011;48941;49.516;8.286;2024-01-06T09:19:22;8.15;;;5.32;;
62848;SDS011;48941;49.516;8.286;2024-01-06T09:21:51;9.30;;;6.47;;
62848;SDS011;48941;49.516;8.286;2024-01-06T09:24:19;9.82;;;5.95;;
62848;SDS011;48941;49.516;8.286;2024-01-06T09:26:47;9.50;;;5.82;;
62848;SDS011;48941;49.516;8.286;2024-01-06T09:29:16;10.95;;;6.00;;
62848;SDS011;48941;49.516;8.286;2024-01-06T09:31:44;11.05;;;6.80;;
62848;SDS011;48941;49.516;8.286;2024-01-06T09:34:12;12.68;;;6.43;;
62848;SDS011;48941;49.516;8.286;2024-01-06T09:36:41;8.95;;;5.65;;
62848;SDS011;48941;49.516;8.286;2024-01-06T09:39:09;11.43;;;6.07;;
62848;SDS011;48941;49.516;8.286;2024-01-06T09:41:37;10.55;;;5.72;;
62848;SDS011;48941;49.516;8.286;2024-01-06T09:44:05;9.15;;;6.10;;
62848;SDS011;48941;49.516;8.286;2024-01-06T09:46:33;10.75;;;5.90;;
62848;SDS011;48941;49.516;8.286;2024-01-06T09:49:03;9.98;;;6.20;;
62848;SDS011;48941;49.516;8.286;2024-01-06T09:51:32;10.10;;;5.82;;
62848;SDS011;48941;49.516;8.286;2024-01-06T09:54:07;8.93;;;5.70;;
62848;SDS011;48941;49.516;8.286;2024-01-06T09:56:37;10.60;;;5.95;;
62848;SDS011;48941;49.516;8.286;2024-01-06T09:59:06;10.45;;;6.35;;
62848;SDS011;48941;49.516;8.286;2024-01-06T10:01:34;13.27;;;6.07;;
62848;SDS011;48941;49.516;8.286;2024-01-06T10:04:02;12.82;;;6.78;;
62848;SDS011;48941;49.516;8.286;2024-01-06T10:06:30;18.67;;;8.20;;
62848;SDS011;48941;49.516;8.286;2024-01-06T10:08:58;10.07;;;6.82;;
62848;SDS011;48941;49.516;8.286;2024-01-06T10:11:28;8.88;;;5.93;;
62848;SDS011;48941;49.516;8.286;2024-01-06T10:13:56;9.05;;;5.70;;
62848;SDS011;48941;49.516;8.286;2024-01-06T10:16:24;11.27;;;6.13;;
62848;SDS011;48941;49.516;8.286;2024-01-06T10:18:52;9.68;;;6.38;;
62848;SDS011;48941;49.516;8.286;2024-01-06T10:21:21;10.88;;;6.20;;
62848;SDS011;48941;49.516;8.286;2024-01-06T10:23:49;11.07;;;7.30;;
62848;SDS011;48941;49.516;8.286;2024-01-06T10:26:18;16.40;;;8.07;;
62848;SDS011;48941;49.516;8.286;2024-01-06T10:28:49;17.10;;;8.32;;
62848;SDS011;48941;49.516;8.286;2024-01-06T10:31:17;16.00;;;8.52;;
62848;SDS011;48941;49.516;8.286;2024-01-06T10:33:46;15.88;;;8.77;;
62848;SDS011;48941;49.516;8.286;2024-01-06T10:36:15;19.20;;;8.68;;
62848;SDS011;48941;49.516;8.286;2024-01-06T10:38:44;13.85;;;7.75;;
62848;SDS011;48941;49.516;8.286;2024-01-06T10:41:12;12.35;;;6.72;;
62848;SDS011;48941;49.516;8.286;2024-01-06T10:43:42;13.85;;;8.00;;
62848;SDS011;48941;49.516;8.286;2024-01-06T10:46:13;14.23;;;7.45;;
62848;SDS011;48941;49.516;8.286;2024-01-06T10:48:42;10.35;;;6.57;;
62848;SDS011;48941;49.516;8.286;2024-01-06T10:51:12;12.30;;;7.10;;
62848;SDS011;48941;49.516;8.286;2024-01-06T10:53:42;10.50;;;6.53;;
62848;SDS011;48941;49.516;8.286;2024-01-06T10:56:10;12.88;;;6.28;;
62848;SDS011;48941;49.516;8.286;2024-01-06T10:58:39;15.07;;;8.98;;
62848;SDS011;48941;49.516;8.286;2024-01-06T11:01:19;10.48;;;6.40;;
62848;SDS011;48941;49.516;8.286;2024-01-06T11:03:53;8.25;;;5.80;;
62848;SDS011;48941;49.516;8.286;2024-01-06T11:06:22;9.52;;;5.30;;
62848;SDS011;48941;49.516;8.286;2024-01-06T11:08:52;11.10;;;5.60;;
62848;SDS011;48941;49.516;8.286;2024-01-06T11:11:24;9.07;;;5.28;;
62848;SDS011;48941;49.516;8.286;2024-01-06T11:13:52;9.68;;;5.93;;
62848;SDS011;48941;49.516;8.286;2024-01-06T11:16:34;8.55;;;5.38;;
62848;SDS011;48941;49.516;8.286;2024-01-06T11:19:02;10.27;;;6.00;;
62848;SDS011;48941;49.516;8.286;2024-01-06T11:21:50;6.47;;;4.85;;
62848;SDS011;48941;49.516;8.286;2024-01-06T11:24:20;8.05;;;5.35;;
62848;SDS011;48941;49.516;8.286;2024-01-06T11:26:55;9.02;;;5.60;;
62848;SDS011;48941;49.516;8.286;2024-01-06T11:29:24;10.43;;;5.25;;
62848;SDS011;48941;49.516;8.286;2024-01-06T11:34:53;7.68;;;5.20;;
62848;SDS011;48941;49.516;8.286;2024-01-06T11:37:25;9.73;;;4.72;;
62848;SDS011;48941;49.516;8.286;2024-01-06T11:40:04;9.02;;;5.88;;
62848;SDS011;48941;49.516;8.286;2024-01-06T11:42:35;9.20;;;5.80;;
62848;SDS011;48941;49.516;8.286;2024-01-06T11:45:03;7.70;;;5.38;;
62848;SDS011;48941;49.516;8.286;2024-01-06T11:47:34;12.43;;;7.68;;
62848;SDS011;48941;49.516;8.286;2024-01-06T11:50:03;11.00;;;6.93;;
62848;SDS011;48941;49.516;8.286;2024-01-06T11:52:32;12.32;;;6.05;;
62848;SDS011;48941;49.516;8.286;2024-01-06T11:55:01;7.50;;;4.75;;
62848;SDS011;48941;49.516;8.286;2024-01-06T11:57:29;7.18;;;4.72;;
62848;SDS011;48941;49.516;8.286;2024-01-06T11:59:58;8.30;;;4.85;;
62848;SDS011;48941;49.516;8.286;2024-01-06T12:02:26;7.47;;;5.50;;
62848;SDS011;48941;49.516;8.286;2024-01-06T12:04:55;9.50;;;5.32;;
62848;SDS011;48941;49.516;8.286;2024-01-06T12:07:24;6.90;;;4.90;;
62848;SDS011;48941;49.516;8.286;2024-01-06T12:10:00;6.95;;;4.72;;
62848;SDS011;48941;49.516;8.286;2024-01-06T12:12:31;6.32;;;4.28;;
62848;SDS011;48941;49.516;8.286;2024-01-06T12:14:59;8.30;;;5.30;;
62848;SDS011;48941;49.516;8.286;2024-01-06T12:17:30;11.02;;;6.38;;
62848;SDS011;48941;49.516;8.286;2024-01-06T12:20:00;11.32;;;7.18;;
62848;SDS011;48941;49.516;8.286;2024-01-06T12:22:28;15.60;;;9.15;;
62848;SDS011;48941;49.516;8.286;2024-01-06T12:24:58;12.82;;;7.53;;
62848;SDS011;48941;49.516;8.286;2024-01-06T12:27:26;11.50;;;7.20;;
62848;SDS011;48941;49.516;8.286;2024-01-06T12:29:54;19.05;;;10.30;;
62848;SDS011;48941;49.516;8.286;2024-01-06T12:32:21;15.80;;;8.18;;
62848;SDS011;48941;49.516;8.286;2024-01-06T12:34:51;19.00;;;10.23;;
62848;SDS011;48941;49.516;8.286;2024-01-06T12:37:20;13.20;;;8.30;;
62848;SDS011;48941;49.516;8.286;2024-01-06T12:39:50;15.77;;;9.30;;
62848;SDS011;48941;49.516;8.286;2024-01-06T12:42:18;14.55;;;8.10;;
62848;SDS011;48941;49.516;8.286;2024-01-06T12:44:48;12.73;;;8.20;;
62848;SDS011;48941;49.516;8.286;2024-01-06T12:47:16;11.73;;;6.53;;
62848;SDS011;48941;49.516;8.286;2024-01-06T12:49:44;11.70;;;6.95;;
62848;SDS011;48941;49.516;8.286;2024-01-06T12:52:12;18.38;;;8.70;;
62848;SDS011;48941;49.516;8.286;2024-01-06T12:54:41;15.57;;;8.30;;
62848;SDS011;48941;49.516;8.286;2024-01-06T12:59:40;13.20;;;7.07;;
62848;SDS011;48941;49.516;8.286;2024-01-06T13:02:09;11.45;;;7.35;;
62848;SDS011;48941;49.516;8.286;2024-01-06T13:04:37;15.95;;;8.48;;
62848;SDS011;48941;49.516;8.286;2024-01-06T13:07:05;12.65;;;7.60;;
62848;SDS011;48941;49.516;8.286;2024-01-06T13:09:33;13.95;;;8.27;;
62848;SDS011;48941;49.516;8.286;2024-01-06T13:12:03;13.95;;;8.52;;
62848;SDS011;48941;49.516;8.286;2024-01-06T13:14:31;12.93;;;8.52;;
62848;SDS011;48941;49.516;8.286;2024-01-06T13:16:59;12.55;;;9.02;;
62848;SDS011;48941;49.516;8.286;2024-01-06T13:19:27;13.95;;;8.60;;
62848;SDS011;48941;49.516;8.286;2024-01-06T13:21:55;12.23;;;7.90;;
62848;SDS011;48941;49.516;8.286;2024-01-06T13:24:23;13.90;;;8.23;;
62848;SDS011;48941;49.516;8.286;2024-01-06T13:26:51;16.63;;;10.68;;
62848;SDS011;48941;49.516;8.286;2024-01-06T13:29:20;15.30;;;8.70;;
62848;SDS011;48941;49.516;8.286;2024-01-06T13:31:49;11.60;;;7.90;;
62848;SDS011;48941;49.516;8.286;2024-01-06T13:34:19;11.07;;;7.85;;
62848;SDS011;48941;49.516;8.286;2024-01-06T13:36:47;13.10;;;7.90;;
62848;SDS011;48941;49.516;8.286;2024-01-06T13:39:15;11.32;;;8.10;;
62848;SDS011;48941;49.516;8.286;2024-01-06T13:41:47;11.82;;;7.53;;
62848;SDS011;48941;49.516;8.286;2024-01-06T13:44:18;11.43;;;7.57;;
62848;SDS011;48941;49.516;8.286;2024-01-06T13:46:48;15.00;;;10.88;;
62848;SDS011;48941;49.516;8.286;2024-01-06T13:49:17;14.15;;;9.23;;
62848;SDS011;48941;49.516;8.286;2024-01-06T13:51:45;13.20;;;8.10;;
62848;SDS011;48941;49.516;8.286;2024-01-06T13:54:13;12.55;;;7.53;;
62848;SDS011;48941;49.516;8.286;2024-01-06T13:56:45;12.40;;;6.57;;
62848;SDS011;48941;49.516;8.286;2024-01-06T13:59:13;13.70;;;6.75;;
62848;SDS011;48941;49.516;8.286;2024-01-06T14:01:47;12.70;;;7.85;;
62848;SDS011;48941;49.516;8.286;2024-01-06T14:04:15;10.50;;;7.00;;
62848;SDS011;48941;49.516;8.286;2024-01-06T14:06:44;12.73;;;7.22;;
62848;SDS011;48941;49.516;8.286;2024-01-06T14:09:14;15.00;;;8.25;;
62848;SDS011;48941;49.516;8.286;2024-01-06T14:11:43;14.48;;;9.00;;
62848;SDS011;48941;49.516;8.286;2024-01-06T14:14:11;14.52;;;8.50;;
62848;SDS011;48941;49.516;8.286;2024-01-06T14:16:39;12.98;;;8.15;;
62848;SDS011;48941;49.516;8.286;2024-01-06T14:19:08;12.02;;;7.03;;
62848;SDS011;48941;49.516;8.286;2024-01-06T14:21:37;10.93;;;7.43;;
62848;SDS011;48941;49.516;8.286;2024-01-06T14:24:05;13.13;;;7.47;;
62848;SDS011;48941;49.516;8.286;2024-01-06T14:26:33;13.35;;;7.20;;
62848;SDS011;48941;49.516;8.286;2024-01-06T14:29:01;12.93;;;7.28;;
62848;SDS011;48941;49.516;8.286;2024-01-06T14:31:29;11.70;;;7.53;;
62848;SDS011;48941;49.516;8.286;2024-01-06T14:33:57;12.50;;;7.80;;
62848;SDS011;48941;49.516;8.286;2024-01-06T14:36:28;20.73;;;10.18;;
62848;SDS011;48941;49.516;8.286;2024-01-06T14:38:55;16.67;;;10.60;;
62848;SDS011;48941;49.516;8.286;2024-01-06T14:41:23;15.48;;;10.00;;
62848;SDS011;48941;49.516;8.286;2024-01-06T14:43:51;14.88;;;9.38;;
62848;SDS011;48941;49.516;8.286;2024-01-06T14:46:19;15.27;;;8.70;;
62848;SDS011;48941;49.516;8.286;2024-01-06T14:48:46;14.45;;;8.40;;
62848;SDS011;48941;49.516;8.286;2024-01-06T14:51:15;13.57;;;8.00;;
62848;SDS011;48941;49.516;8.286;2024-01-06T14:53:44;14.05;;;7.65;;
62848;SDS011;48941;49.516;8.286;2024-01-06T14:56:12;14.73;;;9.60;;
62848;SDS011;48941;49.516;8.286;2024-01-06T14:58:40;29.10;;;17.83;;